Logo AVAMET
Benvolgut visitant, si us plau, ingressa Recuperar contrasenya
AVAMET paisatges

Inforatge Benifairó de les Valls

Dades diàries. Acumulats / Últims 30 dies disponibles

Data Temperatura (°C) Humitat rel. (%) Pressió rel. (hPa) Vent (km/h) Precipitació
Mínima Mitjana Màxima Amplitud
tèrmica
Mínima Mitjana Màxima Mínima Mitjana Màxima Predom. Mitjana Ràfega
màxima
Total
(mm)
Índex-n
Mínima Mitjana Màxima Mínima Mitjana Màxima n
0 a 1
P0 max
mm 5'
Dades mensuals acumulades fins l'últim dia disponible
05/2020 14,3 17,3 19,7 21,3 19,4 25,4 32,6 18,3 25 64 89 1.000 1.014 1.026   6,4 54,7 16,2
Dades anuals acumulades fins l'últim dia disponible
2020 4,4 12,1 19,7 15,7 9,9 19,8 32,6 28,2 16 68 95 995 1.018 1.033   6,2 90,1 316,8
Últims 30 dies disponibles
31-05-2020 17,3     21,7     25,9 8,6 39 65 79 1.010 1.011 1.013 W 7,1 30,6 0,0
30-05-2020 17,8     21,7     25,2 7,4 45 63 78 1.011 1.013 1.014 W 6,6 30,6 0,0
29-05-2020 17,1     22,2     27,0 9,9 35 53 73 1.011 1.014 1.019 SE 7,6 30,6 0,0
28-05-2020 18,0     21,5     26,2 8,2 34 66 83 1.018 1.022 1.025 ESE 6,3 27,4 0,0
27-05-2020 18,9     22,4     26,9 8,0 40 62 82 1.022 1.023 1.025 E 10,0 38,6 0,0
26-05-2020 17,1     21,3     25,4 8,3 51 70 85 1.022 1.023 1.024 E 4,5 25,7 0,0
25-05-2020 16,7     20,3     26,1 9,4 51 74 83 1.022 1.023 1.025 E 4,0 20,9 0,4
24-05-2020 18,2     21,2     23,1 4,9 65 75 83 1.024 1.025 1.026 E 7,1 25,7 0,0
23-05-2020 18,8     23,3     27,3 8,5 43 61 77 1.021 1.022 1.024 E 4,8 20,9 0,0
22-05-2020 19,2     23,8     27,9 8,7 46 61 79 1.017 1.020 1.023 ESE 6,4 32,2 0,0
21-05-2020 18,9     23,9     29,2 10,3 37 57 76 1.015 1.016 1.018 SE 5,6 24,1 0,0
20-05-2020 19,1     23,5     27,1 8,0 48 60 75 1.012 1.013 1.015 E 6,0 25,7 0,0
19-05-2020 19,1     22,5     26,2 7,1 47 60 77 1.013 1.015 1.018 W 6,6 29,0 0,0
18-05-2020 16,8     20,4     24,0 7,2 48 63 76 1.017 1.018 1.019 W 7,2 29,0 0,0
17-05-2020 15,3     19,2     22,8 7,5 49 64 81 1.016 1.018 1.019 SE 6,8 29,0 0,0
16-05-2020 16,3     18,4     21,8 5,5 56 69 79 1.012 1.014 1.017 W 5,3 25,7 0,0
15-05-2020 14,8     17,8     20,3 5,5 56 67 80 1.007 1.010 1.013 E 6,3 29,0 0,0
14-05-2020 14,6     16,8     19,4 4,8 55 74 89 1.001 1.002 1.007 W 3,7 33,8 14,0 0,71 5,20
13-05-2020 14,3     20,1     25,9 11,6 35 56 82 1.000 1.002 1.004 SW 9,8 40,2 0,0
12-05-2020 17,3     19,6     22,3 5,0 49 65 89 1.004 1.006 1.008 E 7,6 38,6 1,6
11-05-2020 17,5     22,2     26,7 9,2 33 45 57 1.002 1.004 1.008 W 12,7 54,7 0,0
10-05-2020 16,8     20,6     26,3 9,5 25 60 88 1.000 1.002 1.007 W 8,7 49,9 0,2
09-05-2020 17,1     19,6     22,7 5,6 69 79 87 1.007 1.010 1.013 ESE 3,9 20,9 0,0
08-05-2020 17,1     20,1     22,7 5,6 58 72 84 1.012 1.014 1.016 E 6,9 33,8 0,0
07-05-2020 17,2     21,1     25,1 7,9 48 66 75 1.015 1.016 1.018 E 5,3 24,1 0,0
06-05-2020 17,3     21,2     25,4 8,1 52 70 85 1.013 1.014 1.016 E 4,3 24,1 0,0
05-05-2020 17,2     20,9     25,3 8,1 62 71 83 1.010 1.012 1.013 E 3,4 22,5 0,0
04-05-2020 16,3     20,2     24,1 7,8 65 76 88 1.012 1.014 1.015 E 3,9 19,3 0,0
03-05-2020 19,2     23,4     26,8 7,6 40 54 75 1.014 1.015 1.017 ESE 5,1 29,0 0,0
02-05-2020 19,7     24,8     31,0 11,3 31 49 64 1.014 1.015 1.016 W 6,6 33,8 0,0
Últims 13 mesos disponibles
04/2020 9,6 12,9 18,8 16,1 15,2 19,9 27,3 17,7 39 72 87 1.003 1.014 1.024 W 5,2 43,5 57,6
03/2020 7,2 11,1 16,4 14,3 11,4 17,8 26,4 19,2 39 67 91 1.004 1.015 1.025 W 7,7 90,1 155,4
02/2020 7,9 10,8 16,7 15,0 14,3 19,9 27,4 19,5 37 66 86 1.011 1.024 1.031 W 5,5 53,1 2,2
01/2020 4,4 8,5 14,9 11,8 9,9 16,1 23,0 18,6 50 70 92 1.016 1.024 1.032 W 6,2 72,4 85,4
12/2019 5,9 11,3 17,6 14,3 12,9 18,1 24,9 19,0 40 66 90 1.001 1.018 1.032 W 6,9 77,2 70,4
11/2019 7,1 11,5 16,8 15,2 15,9 19,3 23,6 16,5 43 56 73 997 1.010 1.017 W 10,3 77,2 2,4
Tots els anys disponibles
Temperatura (°C)
Humitat relativa (%)
Velocitat del vent i ràfega màxima (km/h)
Direcció del vent (°)
Pressió (hPa)
Precipitació (mm)
Nota sobre les dades: s'avisa a l'usuari de la provisionalitat i no oficialitat d'aquestes dades
Logo AVAMET blanc
Web allotjada a Sollutia
Llicència de Creative CommonsLa web d'AVAMET i els seus continguts estan subjectes a una llicència de
Reconeixement - No Comercial - Compartir igual
Últimes estacions: Xodos - la Vega (Soci), la Vall d'Alba - Centre (Ajuntament soci), Chera (Ajuntament soci) - - -